createdAt,value
2022-08-28T00:00:42.643Z,96.47
2022-08-28T00:03:17.343Z,96.89
2022-08-28T00:05:46.569Z,96.56
2022-08-28T00:08:16.807Z,97.66
2022-08-28T00:10:45.700Z,98.24
2022-08-28T00:13:19.009Z,98.46
2022-08-28T00:15:50.500Z,99.00
2022-08-28T00:18:20.738Z,99.94
2022-08-28T00:20:50.254Z,100.00
2022-08-28T00:23:22.648Z,100.00
2022-08-28T00:25:51.349Z,100.00
2022-08-28T00:28:24.339Z,100.00
2022-08-28T00:30:56.610Z,100.00
2022-08-28T00:33:30.355Z,100.00
2022-08-28T00:36:03.642Z,100.00
2022-08-28T00:38:34.324Z,100.00
2022-08-28T00:41:09.466Z,100.00
2022-08-28T00:43:44.244Z,100.00
2022-08-28T00:46:15.924Z,100.00
2022-08-28T00:48:46.471Z,100.00
2022-08-28T00:51:37.006Z,100.00
2022-08-28T00:54:07.857Z,100.00
2022-08-28T00:56:37.738Z,100.00
2022-08-28T00:59:12.689Z,100.00
2022-08-28T01:01:41.674Z,100.00
2022-08-28T01:04:17.075Z,100.00
2022-08-28T01:06:48.706Z,100.00
2022-08-28T01:09:20.931Z,100.00
2022-08-28T01:11:52.952Z,100.00
2022-08-28T01:14:24.162Z,100.00
2022-08-28T01:16:55.740Z,100.00
2022-08-28T01:19:31.521Z,100.00
2022-08-28T01:22:13.901Z,100.00
2022-08-28T01:24:46.271Z,100.00
2022-08-28T01:27:15.156Z,100.00
2022-08-28T01:29:47.926Z,100.00
2022-08-28T01:32:29.122Z,100.00
2022-08-28T01:34:57.853Z,100.00
2022-08-28T01:37:26.451Z,100.00
2022-08-28T01:40:01.338Z,100.00
2022-08-28T01:42:30.391Z,100.00
2022-08-28T01:44:59.229Z,100.00
2022-08-28T01:47:28.286Z,100.00
2022-08-28T01:49:56.869Z,100.00
2022-08-28T01:52:26.535Z,100.00
2022-08-28T01:54:57.541Z,100.00
2022-08-28T01:57:27.280Z,100.00
2022-08-28T01:59:56.653Z,100.00
2022-08-28T02:02:25.621Z,100.00
2022-08-28T02:04:54.535Z,100.00
2022-08-28T02:07:23.377Z,100.00
2022-08-28T02:09:51.942Z,100.00
2022-08-28T02:12:21.906Z,100.00
2022-08-28T02:14:50.892Z,100.00
2022-08-28T02:17:19.961Z,100.00
2022-08-28T02:19:48.393Z,100.00
2022-08-28T02:22:21.503Z,100.00
2022-08-28T02:24:50.202Z,100.00
2022-08-28T02:27:21.388Z,100.00
2022-08-28T02:29:51.364Z,100.00
2022-08-28T02:32:20.012Z,100.00
2022-08-28T02:34:48.921Z,100.00
2022-08-28T02:37:17.666Z,100.00
2022-08-28T02:39:46.536Z,100.00
2022-08-28T02:42:15.586Z,100.00
2022-08-28T02:44:51.091Z,100.00
2022-08-28T02:47:25.375Z,100.00
2022-08-28T02:49:57.442Z,100.00
2022-08-28T02:52:28.972Z,100.00
2022-08-28T02:54:59.282Z,100.00
2022-08-28T02:57:30.856Z,100.00
2022-08-28T03:00:02.929Z,100.00
2022-08-28T03:02:35.122Z,100.00
2022-08-28T03:05:06.734Z,100.00
2022-08-28T03:07:39.042Z,100.00
2022-08-28T03:10:12.676Z,100.00
2022-08-28T03:12:41.945Z,100.00
2022-08-28T03:15:11.424Z,100.00
2022-08-28T03:17:41.405Z,100.00
2022-08-28T03:20:13.061Z,100.00
2022-08-28T03:22:59.538Z,100.00
2022-08-28T03:25:29.559Z,100.00
2022-08-28T03:28:02.072Z,100.00
2022-08-28T03:30:31.867Z,100.00
2022-08-28T03:33:04.091Z,100.00
2022-08-28T03:35:33.313Z,100.00
2022-08-28T03:38:03.572Z,100.00
2022-08-28T03:40:34.245Z,100.00
2022-08-28T03:43:04.260Z,100.00
2022-08-28T03:45:36.291Z,100.00
2022-08-28T03:48:07.495Z,100.00
2022-08-28T03:50:38.263Z,100.00
2022-08-28T03:53:07.377Z,100.00
2022-08-28T03:55:36.193Z,100.00
2022-08-28T03:58:04.818Z,100.00
2022-08-28T04:00:34.759Z,100.00
2022-08-28T04:03:04.593Z,100.00
2022-08-28T04:05:35.742Z,100.00
2022-08-28T04:08:05.290Z,100.00
2022-08-28T04:10:34.758Z,100.00
2022-08-28T04:13:04.786Z,100.00
2022-08-28T04:15:33.657Z,100.00
2022-08-28T04:18:02.573Z,100.00
2022-08-28T04:20:31.490Z,100.00
2022-08-28T04:23:03.725Z,100.00
2022-08-28T04:25:33.286Z,100.00
2022-08-28T04:28:02.873Z,100.00
2022-08-28T04:30:31.458Z,100.00
2022-08-28T04:33:00.585Z,100.00
2022-08-28T04:35:29.191Z,100.00
2022-08-28T04:37:59.096Z,100.00
2022-08-28T04:40:29.394Z,100.00
2022-08-28T04:42:58.062Z,100.00
2022-08-28T04:45:26.571Z,100.00
2022-08-28T04:47:55.148Z,100.00
2022-08-28T04:50:23.632Z,100.00
2022-08-28T04:52:52.261Z,100.00
2022-08-28T04:55:29.044Z,100.00
2022-08-28T04:58:11.767Z,100.00
2022-08-28T05:00:41.879Z,100.00
2022-08-28T05:03:11.366Z,100.00
2022-08-28T05:05:44.755Z,100.00
2022-08-28T05:08:14.668Z,100.00
2022-08-28T05:10:44.354Z,100.00
2022-08-28T05:13:16.563Z,100.00
2022-08-28T05:15:46.724Z,100.00
2022-08-28T05:18:16.829Z,100.00
2022-08-28T05:20:47.314Z,100.00
2022-08-28T05:23:17.858Z,100.00
2022-08-28T05:25:48.963Z,100.00
2022-08-28T05:28:19.732Z,100.00
2022-08-28T05:30:48.470Z,100.00
2022-08-28T05:33:18.118Z,100.00
2022-08-28T05:35:47.896Z,100.00
2022-08-28T05:38:17.817Z,100.00
2022-08-28T05:40:49.258Z,100.00
2022-08-28T05:43:19.498Z,100.00
2022-08-28T05:46:00.311Z,100.00
2022-08-28T05:48:32.971Z,100.00
2022-08-28T05:51:07.095Z,100.00
2022-08-28T05:53:37.763Z,100.00
2022-08-28T05:56:07.066Z,100.00
2022-08-28T05:58:37.873Z,100.00
2022-08-28T06:01:12.633Z,100.00
2022-08-28T06:03:42.777Z,100.00
2022-08-28T06:06:13.282Z,100.00
2022-08-28T06:08:58.330Z,100.00
2022-08-28T06:11:30.405Z,100.00
2022-08-28T06:14:02.566Z,100.00
2022-08-28T06:16:32.733Z,100.00
2022-08-28T06:19:01.592Z,100.00
2022-08-28T06:21:30.821Z,100.00
2022-08-28T06:24:00.349Z,100.00
2022-08-28T06:26:28.933Z,100.00
2022-08-28T06:29:02.399Z,100.00
2022-08-28T06:31:33.450Z,100.00
2022-08-28T06:34:03.330Z,100.00
2022-08-28T06:36:34.538Z,100.00
2022-08-28T06:39:05.342Z,100.00
2022-08-28T06:41:36.963Z,100.00
2022-08-28T06:44:07.513Z,100.00
2022-08-28T06:46:37.523Z,100.00
2022-08-28T06:49:09.887Z,100.00
2022-08-28T06:51:38.807Z,100.00
2022-08-28T06:54:07.977Z,100.00
2022-08-28T06:56:36.833Z,100.00
2022-08-28T06:59:07.085Z,100.00
2022-08-28T07:01:38.067Z,100.00
2022-08-28T07:04:10.519Z,100.00
2022-08-28T07:06:43.286Z,100.00
2022-08-28T07:09:12.338Z,100.00
2022-08-28T07:11:41.197Z,100.00
2022-08-28T07:14:11.115Z,100.00
2022-08-28T07:16:40.527Z,100.00
2022-08-28T07:19:11.330Z,100.00
2022-08-28T07:21:42.481Z,100.00
2022-08-28T07:24:14.812Z,100.00
2022-08-28T07:26:44.904Z,100.00
2022-08-28T07:29:18.723Z,100.00
2022-08-28T07:31:50.891Z,100.00
2022-08-28T07:34:22.322Z,100.00
2022-08-28T07:36:56.377Z,100.00
2022-08-28T07:39:25.949Z,100.00
2022-08-28T07:41:54.851Z,100.00
2022-08-28T07:44:43.237Z,100.00
2022-08-28T07:47:13.013Z,100.00
2022-08-28T07:49:42.770Z,100.00
2022-08-28T07:52:15.439Z,100.00
2022-08-28T07:54:44.271Z,100.00
2022-08-28T07:57:13.069Z,100.00
2022-08-28T07:59:44.222Z,100.00
2022-08-28T08:02:13.272Z,100.00
2022-08-28T08:04:42.244Z,100.00
2022-08-28T08:07:13.000Z,100.00
2022-08-28T08:09:44.288Z,100.00
2022-08-28T08:12:14.268Z,100.00
2022-08-28T08:14:45.552Z,100.00
2022-08-28T08:17:14.282Z,100.00
2022-08-28T08:19:43.322Z,100.00
2022-08-28T08:22:12.565Z,100.00
2022-08-28T08:24:41.492Z,100.00
2022-08-28T08:27:10.822Z,100.00
2022-08-28T08:29:40.006Z,100.00
2022-08-28T08:32:12.753Z,100.00
2022-08-28T08:34:43.946Z,100.00
2022-08-28T08:37:13.716Z,100.00
2022-08-28T08:39:45.760Z,100.00
2022-08-28T08:42:23.507Z,100.00
2022-08-28T08:44:54.625Z,100.00
2022-08-28T08:47:34.025Z,100.00
2022-08-28T08:50:05.506Z,100.00
2022-08-28T08:52:40.907Z,100.00
2022-08-28T08:55:20.548Z,100.00
2022-08-28T08:57:56.055Z,100.00
2022-08-28T09:00:25.816Z,100.00
2022-08-28T09:03:04.424Z,100.00
2022-08-28T09:05:44.268Z,100.00
2022-08-28T09:08:32.478Z,100.00
2022-08-28T09:11:16.663Z,100.00
2022-08-28T09:13:54.089Z,100.00
2022-08-28T09:16:31.027Z,100.00
2022-08-28T09:19:02.865Z,100.00
2022-08-28T09:21:34.137Z,100.00
2022-08-28T09:24:05.993Z,100.00
2022-08-28T09:26:41.643Z,100.00
2022-08-28T09:29:18.420Z,98.60
2022-08-28T09:31:47.365Z,99.09
2022-08-28T09:34:24.129Z,97.34
2022-08-28T09:36:54.319Z,97.91
2022-08-28T09:39:28.329Z,96.96
2022-08-28T09:42:19.509Z,93.40
2022-08-28T09:44:57.357Z,91.41
2022-08-28T09:47:46.864Z,86.23
2022-08-28T09:50:21.934Z,90.08
2022-08-28T09:52:51.970Z,90.63
2022-08-28T09:55:28.590Z,88.03
2022-08-28T09:57:58.292Z,88.93
2022-08-28T10:00:27.611Z,88.91
2022-08-28T10:03:07.572Z,87.46
2022-08-28T10:05:43.143Z,85.99
2022-08-28T10:08:27.157Z,90.21
2022-08-28T10:11:01.412Z,87.73
2022-08-28T10:13:32.807Z,86.96
2022-08-28T10:16:21.789Z,83.55
2022-08-28T10:18:57.899Z,83.99
2022-08-28T10:21:37.833Z,80.87
2022-08-28T10:24:39.124Z,75.87
2022-08-28T10:27:18.801Z,76.99
2022-08-28T10:29:54.298Z,77.94
2022-08-28T10:33:01.117Z,75.33
2022-08-28T10:35:40.390Z,79.22
2022-08-28T10:38:16.407Z,70.72
2022-08-28T10:40:53.497Z,65.17
2022-08-28T10:43:30.947Z,65.32
2022-08-28T10:46:05.460Z,63.30
2022-08-28T10:48:41.496Z,60.87
2022-08-28T10:51:17.948Z,57.69
2022-08-28T10:53:53.644Z,57.17
2022-08-28T10:56:26.834Z,58.54
2022-08-28T10:58:59.905Z,59.04
2022-08-28T11:01:34.219Z,58.29
2022-08-28T11:04:08.803Z,57.82
2022-08-28T11:06:42.352Z,54.88
2022-08-28T11:09:27.097Z,54.91
2022-08-28T11:12:01.737Z,55.27
2022-08-28T11:14:35.524Z,54.18
2022-08-28T11:17:33.206Z,52.18
2022-08-28T11:20:11.709Z,50.73
2022-08-28T11:22:44.171Z,50.85
2022-08-28T11:25:32.804Z,51.71
2022-08-28T11:28:47.522Z,48.97
2022-08-28T11:31:35.657Z,47.57
2022-08-28T11:34:05.790Z,47.50
2022-08-28T11:37:03.910Z,47.17
2022-08-28T11:39:32.812Z,49.00
2022-08-28T11:42:37.783Z,47.81
2022-08-28T11:45:08.109Z,46.81
2022-08-28T11:47:56.918Z,45.08
2022-08-28T11:50:34.444Z,44.32
2022-08-28T11:53:30.966Z,42.74
2022-08-28T11:56:29.018Z,43.85
2022-08-28T11:59:18.712Z,43.60
2022-08-28T12:01:47.569Z,44.02
2022-08-28T12:04:18.053Z,44.31
2022-08-28T12:07:22.150Z,41.80
2022-08-28T12:10:37.517Z,43.38
2022-08-28T12:13:09.138Z,43.04
2022-08-28T12:15:45.872Z,42.93
2022-08-28T12:19:01.714Z,40.19
2022-08-28T12:21:31.656Z,41.34
2022-08-28T12:24:09.037Z,40.26
2022-08-28T12:26:44.064Z,40.51
2022-08-28T12:29:28.402Z,39.63
2022-08-28T12:32:28.693Z,38.34
2022-08-28T12:35:19.987Z,38.49
2022-08-28T12:38:03.446Z,38.21
2022-08-28T12:40:50.311Z,37.81
2022-08-28T12:43:31.189Z,35.60
2022-08-28T12:46:02.894Z,36.81
2022-08-28T12:48:35.783Z,36.68
2022-08-28T12:51:08.152Z,36.32
2022-08-28T12:53:43.637Z,35.50
2022-08-28T12:56:13.526Z,35.61
2022-08-28T12:58:43.721Z,34.63
2022-08-28T13:01:15.740Z,34.12
2022-08-28T13:03:49.768Z,33.11
2022-08-28T13:06:25.850Z,33.78
2022-08-28T13:09:01.836Z,33.97
2022-08-28T13:11:34.536Z,33.67
2022-08-28T13:14:04.580Z,33.51
2022-08-28T13:16:40.835Z,33.40
2022-08-28T13:19:35.762Z,32.64
2022-08-28T13:22:09.479Z,32.86
2022-08-28T13:24:47.372Z,32.74
2022-08-28T13:27:25.899Z,32.53
2022-08-28T13:30:02.761Z,32.25
2022-08-28T13:32:34.832Z,31.33
2022-08-28T13:35:10.544Z,31.18
2022-08-28T13:37:44.926Z,30.76
2022-08-28T13:40:38.210Z,31.17
2022-08-28T13:43:11.161Z,31.06
2022-08-28T13:45:44.090Z,30.83
2022-08-28T13:48:14.292Z,30.58
2022-08-28T13:50:47.629Z,30.56
2022-08-28T13:53:19.186Z,30.84
2022-08-28T13:55:51.123Z,30.80
2022-08-28T13:58:19.963Z,30.92
2022-08-28T14:00:50.364Z,31.46
2022-08-28T14:03:36.508Z,30.74
2022-08-28T14:06:11.411Z,30.92
2022-08-28T14:08:40.209Z,31.10
2022-08-28T14:11:12.714Z,31.07
2022-08-28T14:13:47.331Z,31.72
2022-08-28T14:16:26.313Z,32.08
2022-08-28T14:18:55.329Z,32.45
2022-08-28T14:21:25.717Z,32.06
2022-08-28T14:23:55.364Z,32.22
2022-08-28T14:26:24.250Z,32.39
2022-08-28T14:28:52.872Z,32.47
2022-08-28T14:31:24.711Z,32.73
2022-08-28T14:33:57.663Z,33.04
2022-08-28T14:38:29.243Z,33.16
2022-08-28T14:40:58.276Z,33.13
2022-08-28T14:43:26.988Z,32.76
2022-08-28T14:45:55.801Z,32.73
2022-08-28T14:48:24.557Z,32.73
2022-08-28T14:50:53.682Z,32.44
2022-08-28T14:53:22.606Z,32.86
2022-08-28T14:55:52.568Z,33.62
2022-08-28T14:58:21.689Z,34.24
2022-08-28T15:00:52.198Z,34.41
2022-08-28T15:03:22.376Z,34.67
2022-08-28T15:06:01.738Z,34.06
2022-08-28T15:08:31.446Z,33.53
2022-08-28T15:11:07.348Z,33.62
2022-08-28T15:13:36.346Z,33.36
2022-08-28T15:16:15.654Z,33.41
2022-08-28T15:18:46.701Z,33.58
2022-08-28T15:21:18.122Z,33.24
2022-08-28T15:23:46.964Z,33.26
2022-08-28T15:26:16.902Z,33.25
2022-08-28T15:28:45.369Z,33.23
2022-08-28T15:31:14.213Z,33.39
2022-08-28T15:33:45.915Z,33.36
2022-08-28T15:36:14.667Z,33.13
2022-08-28T15:39:00.884Z,32.95
2022-08-28T15:41:32.124Z,32.99
2022-08-28T15:44:02.966Z,32.53
2022-08-28T15:46:33.933Z,32.74
2022-08-28T15:49:03.408Z,32.76
2022-08-28T15:51:33.413Z,32.83
2022-08-28T15:54:02.688Z,33.01
2022-08-28T15:56:32.699Z,32.74
2022-08-28T15:59:01.197Z,32.94
2022-08-28T16:01:30.028Z,33.45
2022-08-28T16:03:58.687Z,33.40
2022-08-28T16:06:29.041Z,33.47
2022-08-28T16:08:58.941Z,33.26
2022-08-28T16:11:27.816Z,33.68
2022-08-28T16:14:04.710Z,33.82
2022-08-28T16:16:34.410Z,34.13
2022-08-28T16:19:03.586Z,33.97
2022-08-28T16:21:33.225Z,34.01
2022-08-28T16:24:01.890Z,33.90
2022-08-28T16:26:30.689Z,34.10
2022-08-28T16:29:00.171Z,34.39
2022-08-28T16:31:30.805Z,34.35
2022-08-28T16:33:59.265Z,34.73
2022-08-28T16:37:26.597Z,34.77
2022-08-28T16:40:10.183Z,34.97
2022-08-28T16:42:38.782Z,35.35
2022-08-28T16:45:09.200Z,35.31
2022-08-28T16:47:43.229Z,35.32
2022-08-28T16:50:15.799Z,35.49
2022-08-28T16:52:47.154Z,35.47
2022-08-28T16:55:16.221Z,35.38
2022-08-28T16:57:45.192Z,35.54
2022-08-28T17:00:15.061Z,35.32
2022-08-28T17:02:45.065Z,35.34
2022-08-28T17:05:15.280Z,35.39
2022-08-28T17:07:45.229Z,35.39
2022-08-28T17:10:17.355Z,35.46
2022-08-28T17:12:46.140Z,35.50
2022-08-28T17:15:15.357Z,35.62
2022-08-28T17:17:46.430Z,35.87
2022-08-28T17:20:29.882Z,35.77
2022-08-28T17:22:58.758Z,35.91
2022-08-28T17:25:28.709Z,36.10
2022-08-28T17:27:57.642Z,36.32
2022-08-28T17:30:26.907Z,36.78
2022-08-28T17:32:57.391Z,37.06
2022-08-28T17:35:28.688Z,37.48
2022-08-28T17:37:57.747Z,37.55
2022-08-28T17:40:26.622Z,37.90
2022-08-28T17:42:57.074Z,38.00
2022-08-28T17:45:25.978Z,38.46
2022-08-28T17:47:54.730Z,38.75
2022-08-28T17:50:24.905Z,39.05
2022-08-28T17:52:54.468Z,38.83
2022-08-28T17:55:23.290Z,39.19
2022-08-28T17:57:51.875Z,39.40
2022-08-28T18:00:20.968Z,39.35
2022-08-28T18:02:52.552Z,39.59
2022-08-28T18:05:21.166Z,39.67
2022-08-28T18:07:51.753Z,40.03
2022-08-28T18:10:21.757Z,39.99
2022-08-28T18:12:50.669Z,40.54
2022-08-28T18:15:19.335Z,40.66
2022-08-28T18:17:50.640Z,40.97
2022-08-28T18:20:20.359Z,42.49
2022-08-28T18:22:50.325Z,42.99
2022-08-28T18:25:33.308Z,42.91
2022-08-28T18:28:02.633Z,43.05
2022-08-28T18:30:31.587Z,43.11
2022-08-28T18:33:02.579Z,43.36
2022-08-28T18:35:32.479Z,43.61
2022-08-28T18:38:02.806Z,43.93
2022-08-28T18:40:32.420Z,44.20
2022-08-28T18:43:01.145Z,44.49
2022-08-28T18:45:31.612Z,44.69
2022-08-28T18:48:01.268Z,44.88
2022-08-28T18:50:31.881Z,45.28
2022-08-28T18:53:03.942Z,45.62
2022-08-28T18:55:33.986Z,45.99
2022-08-28T18:58:03.407Z,46.09
2022-08-28T19:00:34.339Z,46.69
2022-08-28T19:03:03.315Z,47.08
2022-08-28T19:05:33.536Z,47.56
2022-08-28T19:08:05.217Z,48.35
2022-08-28T19:10:35.200Z,48.85
2022-08-28T19:13:05.794Z,49.98
2022-08-28T19:15:36.018Z,50.70
2022-08-28T19:18:05.828Z,52.40
2022-08-28T19:20:36.279Z,52.53
2022-08-28T19:23:07.095Z,53.39
2022-08-28T19:25:36.831Z,54.89
2022-08-28T19:28:06.119Z,56.08
2022-08-28T19:30:35.566Z,55.86
2022-08-28T19:33:06.421Z,58.66
2022-08-28T19:35:36.488Z,62.11
2022-08-28T19:38:07.204Z,64.69
2022-08-28T19:40:38.983Z,66.22
2022-08-28T19:43:07.779Z,66.52
2022-08-28T19:45:42.651Z,67.24
2022-08-28T19:48:12.490Z,66.29
2022-08-28T19:50:41.352Z,67.70
2022-08-28T19:53:11.630Z,68.50
2022-08-28T19:55:40.334Z,69.02
2022-08-28T19:58:10.487Z,68.39
2022-08-28T20:00:39.351Z,67.24
2022-08-28T20:03:08.254Z,67.49
2022-08-28T20:05:38.305Z,67.50
2022-08-28T20:08:07.302Z,66.92
2022-08-28T20:10:39.025Z,66.97
2022-08-28T20:13:08.120Z,67.17
2022-08-28T20:15:37.581Z,68.26
2022-08-28T20:18:08.301Z,70.36
2022-08-28T20:20:37.951Z,71.49
2022-08-28T20:23:07.882Z,72.36
2022-08-28T20:25:40.844Z,75.86
2022-08-28T20:28:10.216Z,77.52
2022-08-28T20:30:40.365Z,80.70
2022-08-28T20:33:09.273Z,84.03
2022-08-28T20:35:39.081Z,87.06
2022-08-28T20:38:07.920Z,89.62
2022-08-28T20:40:38.382Z,91.87
2022-08-28T20:43:07.826Z,91.52
2022-08-28T20:45:36.731Z,93.19
2022-08-28T20:48:05.683Z,95.72
2022-08-28T20:50:34.389Z,97.74
2022-08-28T20:53:04.085Z,99.80
2022-08-28T20:55:32.886Z,100.00
2022-08-28T20:58:02.880Z,100.00
2022-08-28T21:00:31.810Z,100.00
2022-08-28T21:03:00.557Z,100.00
2022-08-28T21:05:30.459Z,100.00
2022-08-28T21:07:59.484Z,100.00
2022-08-28T21:10:28.343Z,100.00
2022-08-28T21:12:57.041Z,100.00
2022-08-28T21:15:27.267Z,100.00
2022-08-28T21:17:56.343Z,100.00
2022-08-28T21:20:25.297Z,100.00
2022-08-28T21:22:57.678Z,100.00
2022-08-28T21:25:26.698Z,100.00
2022-08-28T21:27:55.557Z,100.00
2022-08-28T21:30:29.541Z,100.00
2022-08-28T21:33:00.016Z,100.00
2022-08-28T21:35:29.158Z,100.00
2022-08-28T21:37:57.641Z,100.00
2022-08-28T21:40:26.268Z,100.00
2022-08-28T21:42:54.884Z,100.00
2022-08-28T21:45:23.626Z,100.00
2022-08-28T21:47:52.279Z,100.00
2022-08-28T21:50:22.365Z,100.00
2022-08-28T21:52:51.644Z,100.00
2022-08-28T21:55:20.249Z,100.00
2022-08-28T21:57:48.846Z,100.00
2022-08-28T22:00:22.042Z,100.00
2022-08-28T22:02:51.499Z,100.00
2022-08-28T22:05:22.261Z,100.00
2022-08-28T22:07:50.920Z,100.00
2022-08-28T22:10:19.662Z,100.00
2022-08-28T22:12:48.808Z,100.00
2022-08-28T22:15:17.633Z,100.00
2022-08-28T22:17:47.394Z,100.00
2022-08-28T22:20:15.914Z,100.00
2022-08-28T22:23:03.404Z,100.00
2022-08-28T22:25:32.447Z,100.00
2022-08-28T22:28:11.778Z,100.00
2022-08-28T22:30:43.412Z,100.00
2022-08-28T22:33:12.256Z,100.00
2022-08-28T22:35:42.677Z,100.00
2022-08-28T22:38:15.032Z,100.00
2022-08-28T22:40:44.173Z,100.00
2022-08-28T22:43:13.009Z,100.00
2022-08-28T22:45:41.924Z,100.00
2022-08-28T22:48:11.692Z,100.00
2022-08-28T22:50:42.077Z,100.00
2022-08-28T22:53:13.578Z,100.00
2022-08-28T22:55:43.675Z,100.00
2022-08-28T22:58:13.435Z,100.00
2022-08-28T23:00:44.169Z,100.00
2022-08-28T23:03:13.293Z,100.00
2022-08-28T23:05:42.044Z,100.00
2022-08-28T23:08:10.526Z,100.00
2022-08-28T23:10:58.144Z,100.00
2022-08-28T23:13:28.075Z,100.00
2022-08-28T23:15:56.893Z,100.00
2022-08-28T23:18:25.777Z,100.00
2022-08-28T23:20:57.002Z,100.00
2022-08-28T23:23:26.639Z,100.00
2022-08-28T23:25:56.732Z,100.00
2022-08-28T23:28:25.447Z,100.00
2022-08-28T23:30:53.867Z,100.00
2022-08-28T23:33:23.602Z,100.00
2022-08-28T23:35:52.773Z,100.00
2022-08-28T23:38:21.474Z,100.00
2022-08-28T23:40:49.976Z,100.00
2022-08-28T23:43:21.105Z,100.00
2022-08-28T23:45:49.934Z,100.00
2022-08-28T23:48:18.796Z,100.00
2022-08-28T23:50:47.826Z,100.00
2022-08-28T23:53:16.579Z,100.00
2022-08-28T23:55:46.035Z,100.00
2022-08-28T23:58:17.516Z,100.00
